GAC782A LIRQ-LSZS
Flight info
| Callsign | GAC782A |
|---|---|
| Flight time | 0h 55m |
| Altitude | 36000 |
| Route | BIBNO DCT OSBUL DCT ABESI N851 PIXOS Z119 PELAD |
| Aircraft | C510/L-SDFGRWY/LB1 |
Departure
| Time | 2026-04-26 09:58 |
|---|---|
| Airport | Florence Airport, Peretola (LIRQ) |
Arrival
| Time | 2026-04-26 10:54 |
|---|---|
| Airport | Engadin Airport (LSZS) |
| Time | Latitude | Longitude | Altitude | Speed | Heading |
|---|---|---|---|---|---|
| 2026-04-26 09:46 | 43.80729 | 11.19704 | 127 ft | 0 kts | 129° |
| 2026-04-26 09:55 | 43.80727 | 11.19711 | 124 ft | 3 kts | 101° |
| 2026-04-26 09:55 | 43.80752 | 11.19719 | 125 ft | 3 kts | 291° |
| 2026-04-26 09:56 | 43.80750 | 11.19703 | 127 ft | 2 kts | 254° |
| 2026-04-26 09:56 | 43.80737 | 11.19655 | 127 ft | 9 kts | 238° |
| 2026-04-26 09:56 | 43.80701 | 11.19625 | 126 ft | 8 kts | 184° |
| 2026-04-26 09:56 | 43.80643 | 11.19672 | 125 ft | 12 kts | 133° |
| 2026-04-26 09:57 | 43.80587 | 11.19742 | 125 ft | 13 kts | 139° |
| 2026-04-26 09:57 | 43.80576 | 11.19749 | 125 ft | 0 kts | 204° |
| 2026-04-26 09:57 | 43.81458 | 11.21211 | 128 ft | 1 kts | 228° |
| 2026-04-26 09:57 | 43.81409 | 11.21135 | 129 ft | 34 kts | 230° |
| 2026-04-26 09:58 | 43.81093 | 11.20648 | 122 ft | 99 kts | 225° |
| 2026-04-26 09:58 | 43.80576 | 11.19834 | 462 ft | 114 kts | 232° |
| 2026-04-26 09:58 | 43.80039 | 11.18917 | 783 ft | 131 kts | 232° |
| 2026-04-26 09:58 | 43.79680 | 11.17857 | 1646 ft | 115 kts | 262° |
| 2026-04-26 09:59 | 43.79750 | 11.16751 | 2351 ft | 120 kts | 280° |
| 2026-04-26 09:59 | 43.79939 | 11.15662 | 3150 ft | 112 kts | 283° |
| 2026-04-26 09:59 | 43.80105 | 11.14575 | 3760 ft | 121 kts | 282° |
| 2026-04-26 09:59 | 43.80280 | 11.13407 | 4448 ft | 119 kts | 283° |
| 2026-04-26 10:00 | 43.80668 | 11.12499 | 5245 ft | 104 kts | 312° |
| 2026-04-26 10:00 | 43.80913 | 11.11621 | 5806 ft | 102 kts | 270° |
| 2026-04-26 10:00 | 43.80900 | 11.10522 | 6245 ft | 118 kts | 268° |
| 2026-04-26 10:00 | 43.80904 | 11.09304 | 6673 ft | 140 kts | 274° |
| 2026-04-26 10:01 | 43.80992 | 11.07856 | 7112 ft | 157 kts | 274° |
| 2026-04-26 10:01 | 43.81057 | 11.06360 | 7814 ft | 156 kts | 274° |
| 2026-04-26 10:01 | 43.81135 | 11.04854 | 8486 ft | 158 kts | 275° |
| 2026-04-26 10:01 | 43.81215 | 11.03332 | 9157 ft | 159 kts | 281° |
| 2026-04-26 10:02 | 43.81609 | 11.01914 | 9844 ft | 158 kts | 303° |
| 2026-04-26 10:02 | 43.82279 | 11.00701 | 10454 ft | 160 kts | 319° |
| 2026-04-26 10:02 | 43.83202 | 10.99851 | 11059 ft | 160 kts | 336° |
| 2026-04-26 10:02 | 43.84275 | 10.99427 | 11652 ft | 162 kts | 355° |
| 2026-04-26 10:03 | 43.85396 | 10.99442 | 12222 ft | 162 kts | 5° |
| 2026-04-26 10:03 | 43.86532 | 10.99478 | 12770 ft | 164 kts | 2° |
| 2026-04-26 10:03 | 43.87679 | 10.99527 | 13325 ft | 166 kts | 5° |
| 2026-04-26 10:03 | 43.88839 | 10.99592 | 13883 ft | 168 kts | 4° |
| 2026-04-26 10:04 | 43.90010 | 10.99647 | 14394 ft | 168 kts | 5° |
| 2026-04-26 10:04 | 43.91177 | 10.99707 | 14919 ft | 167 kts | 3° |
| 2026-04-26 10:04 | 43.92345 | 10.99762 | 15426 ft | 168 kts | 4° |
| 2026-04-26 10:04 | 43.93512 | 10.99827 | 15957 ft | 168 kts | 3° |
| 2026-04-26 10:05 | 43.94686 | 10.99892 | 16452 ft | 170 kts | 2° |
| 2026-04-26 10:05 | 43.95868 | 10.99957 | 16959 ft | 171 kts | 2° |
| 2026-04-26 10:05 | 43.97057 | 11.00024 | 17464 ft | 171 kts | 2° |
| 2026-04-26 10:05 | 43.98248 | 11.00086 | 17988 ft | 172 kts | 2° |
| 2026-04-26 10:06 | 43.99442 | 11.00154 | 18501 ft | 172 kts | 1° |
| 2026-04-26 10:06 | 44.00643 | 11.00215 | 18929 ft | 173 kts | 0° |
| 2026-04-26 10:06 | 44.01819 | 10.99918 | 19363 ft | 174 kts | 339° |
| 2026-04-26 10:06 | 44.02875 | 10.99100 | 19794 ft | 175 kts | 323° |
| 2026-04-26 10:07 | 44.03693 | 10.97828 | 20238 ft | 179 kts | 306° |
| 2026-04-26 10:07 | 44.04280 | 10.96296 | 20551 ft | 189 kts | 301° |
| 2026-04-26 10:07 | 44.04952 | 10.94640 | 20861 ft | 196 kts | 302° |
| 2026-04-26 10:07 | 44.05589 | 10.92998 | 21329 ft | 195 kts | 301° |
| 2026-04-26 10:08 | 44.06242 | 10.91310 | 21787 ft | 196 kts | 302° |
| 2026-04-26 10:08 | 44.06891 | 10.89634 | 22215 ft | 197 kts | 301° |
| 2026-04-26 10:08 | 44.07543 | 10.87955 | 22657 ft | 198 kts | 302° |
| 2026-04-26 10:08 | 44.08190 | 10.86289 | 23113 ft | 199 kts | 301° |
| 2026-04-26 10:09 | 44.08849 | 10.84593 | 23562 ft | 200 kts | 302° |
| 2026-04-26 10:09 | 44.09512 | 10.82887 | 23968 ft | 201 kts | 301° |
| 2026-04-26 10:09 | 44.10176 | 10.81167 | 24330 ft | 202 kts | 301° |
| 2026-04-26 10:09 | 44.10847 | 10.79442 | 24733 ft | 203 kts | 300° |
| 2026-04-26 10:10 | 44.11517 | 10.77704 | 25111 ft | 204 kts | 300° |
| 2026-04-26 10:10 | 44.12194 | 10.75959 | 25476 ft | 206 kts | 300° |
| 2026-04-26 10:10 | 44.12874 | 10.74199 | 25850 ft | 207 kts | 300° |
| 2026-04-26 10:10 | 44.13558 | 10.72428 | 26212 ft | 208 kts | 300° |
| 2026-04-26 10:11 | 44.14246 | 10.70643 | 26573 ft | 210 kts | 300° |
| 2026-04-26 10:11 | 44.14939 | 10.68847 | 26931 ft | 211 kts | 299° |
| 2026-04-26 10:11 | 44.15637 | 10.67037 | 27289 ft | 213 kts | 299° |
| 2026-04-26 10:11 | 44.16348 | 10.65224 | 27653 ft | 214 kts | 302° |
| 2026-04-26 10:12 | 44.17331 | 10.63671 | 28005 ft | 216 kts | 319° |
| 2026-04-26 10:12 | 44.18590 | 10.62525 | 28347 ft | 218 kts | 333° |
| 2026-04-26 10:12 | 44.20024 | 10.61785 | 28691 ft | 221 kts | 338° |
| 2026-04-26 10:12 | 44.21464 | 10.61019 | 29032 ft | 222 kts | 336° |
| 2026-04-26 10:13 | 44.22921 | 10.60260 | 29368 ft | 224 kts | 338° |
| 2026-04-26 10:13 | 44.24392 | 10.59509 | 29704 ft | 226 kts | 337° |
| 2026-04-26 10:13 | 44.25874 | 10.58746 | 30049 ft | 228 kts | 337° |
| 2026-04-26 10:13 | 44.27366 | 10.57974 | 30370 ft | 230 kts | 337° |
| 2026-04-26 10:14 | 44.28871 | 10.57197 | 30607 ft | 231 kts | 336° |
| 2026-04-26 10:14 | 44.30385 | 10.56414 | 30875 ft | 233 kts | 336° |
| 2026-04-26 10:14 | 44.31910 | 10.55623 | 31154 ft | 234 kts | 336° |
| 2026-04-26 10:14 | 44.33442 | 10.54831 | 31437 ft | 235 kts | 336° |
| 2026-04-26 10:15 | 44.34981 | 10.54031 | 31711 ft | 237 kts | 336° |
| 2026-04-26 10:15 | 44.36530 | 10.53230 | 31971 ft | 238 kts | 336° |
| 2026-04-26 10:15 | 44.38087 | 10.52423 | 32208 ft | 241 kts | 336° |
| 2026-04-26 10:15 | 44.39695 | 10.51586 | 32216 ft | 252 kts | 336° |
| 2026-04-26 10:16 | 44.41375 | 10.50709 | 32223 ft | 263 kts | 336° |
| 2026-04-26 10:16 | 44.43119 | 10.49805 | 32228 ft | 272 kts | 336° |
| 2026-04-26 10:16 | 44.44918 | 10.48872 | 32227 ft | 279 kts | 337° |
| 2026-04-26 10:16 | 44.46763 | 10.47912 | 32227 ft | 286 kts | 337° |
| 2026-04-26 10:17 | 44.48647 | 10.46930 | 32227 ft | 292 kts | 337° |
| 2026-04-26 10:17 | 44.50566 | 10.45930 | 32227 ft | 297 kts | 337° |
| 2026-04-26 10:17 | 44.51855 | 10.45260 | 32227 ft | 300 kts | 337° |
| 2026-04-26 10:17 | 44.53825 | 10.44232 | 32214 ft | 304 kts | 337° |
| 2026-04-26 10:18 | 44.57830 | 10.42140 | 32203 ft | 310 kts | 337° |
| 2026-04-26 10:18 | 44.61904 | 10.40008 | 32194 ft | 315 kts | 337° |
| 2026-04-26 10:19 | 44.66032 | 10.37846 | 32196 ft | 318 kts | 337° |
| 2026-04-26 10:19 | 44.70196 | 10.35662 | 32188 ft | 321 kts | 337° |
| 2026-04-26 10:20 | 44.74391 | 10.33460 | 32173 ft | 323 kts | 337° |
| 2026-04-26 10:20 | 44.78611 | 10.31237 | 32141 ft | 325 kts | 337° |
| 2026-04-26 10:21 | 44.82785 | 10.28827 | 32138 ft | 323 kts | 327° |
| 2026-04-26 10:21 | 44.86547 | 10.25387 | 32139 ft | 323 kts | 326° |
| 2026-04-26 10:22 | 44.90335 | 10.21958 | 32141 ft | 324 kts | 325° |
| 2026-04-26 10:22 | 44.94123 | 10.18494 | 32139 ft | 325 kts | 325° |
| 2026-04-26 10:23 | 44.97926 | 10.15022 | 32141 ft | 326 kts | 325° |
| 2026-04-26 10:23 | 45.01735 | 10.11535 | 32121 ft | 326 kts | 325° |
| 2026-04-26 10:24 | 45.05547 | 10.08040 | 32119 ft | 327 kts | 325° |
| 2026-04-26 10:24 | 45.09363 | 10.04536 | 32118 ft | 327 kts | 325° |
| 2026-04-26 10:25 | 45.13157 | 10.01046 | 32097 ft | 328 kts | 325° |
| 2026-04-26 10:25 | 45.16981 | 9.97525 | 32103 ft | 328 kts | 325° |
| 2026-04-26 10:26 | 45.20805 | 9.93995 | 32103 ft | 328 kts | 325° |
| 2026-04-26 10:26 | 45.24631 | 9.90460 | 32105 ft | 328 kts | 325° |
| 2026-04-26 10:27 | 45.28456 | 9.86918 | 32107 ft | 328 kts | 325° |
| 2026-04-26 10:27 | 45.32280 | 9.83372 | 32106 ft | 329 kts | 325° |
| 2026-04-26 10:28 | 45.36108 | 9.79817 | 32132 ft | 329 kts | 325° |
| 2026-04-26 10:28 | 45.39936 | 9.76255 | 32152 ft | 329 kts | 325° |
| 2026-04-26 10:29 | 45.43762 | 9.72691 | 32162 ft | 329 kts | 325° |
| 2026-04-26 10:29 | 45.47584 | 9.69123 | 32176 ft | 328 kts | 325° |
| 2026-04-26 10:30 | 45.51405 | 9.65553 | 32184 ft | 328 kts | 325° |
| 2026-04-26 10:30 | 45.55223 | 9.61976 | 32189 ft | 328 kts | 325° |
| 2026-04-26 10:31 | 45.59038 | 9.58398 | 32195 ft | 328 kts | 324° |
| 2026-04-26 10:31 | 45.62852 | 9.54814 | 32195 ft | 328 kts | 324° |
| 2026-04-26 10:32 | 45.66664 | 9.51227 | 32187 ft | 328 kts | 324° |
| 2026-04-26 10:32 | 45.70474 | 9.47635 | 32126 ft | 328 kts | 324° |
| 2026-04-26 10:33 | 45.74286 | 9.44035 | 32117 ft | 328 kts | 324° |
| 2026-04-26 10:33 | 45.78098 | 9.40431 | 32116 ft | 328 kts | 324° |
| 2026-04-26 10:34 | 45.81905 | 9.36824 | 32120 ft | 328 kts | 324° |
| 2026-04-26 10:34 | 45.85712 | 9.33213 | 32115 ft | 328 kts | 324° |
| 2026-04-26 10:35 | 45.89513 | 9.29597 | 32114 ft | 328 kts | 324° |
| 2026-04-26 10:35 | 45.93326 | 9.25970 | 32109 ft | 329 kts | 324° |
| 2026-04-26 10:36 | 45.97140 | 9.22330 | 32109 ft | 329 kts | 324° |
| 2026-04-26 10:36 | 46.00922 | 9.18719 | 32111 ft | 328 kts | 323° |
| 2026-04-26 10:37 | 46.04718 | 9.15084 | 32110 ft | 328 kts | 323° |
| 2026-04-26 10:37 | 46.08517 | 9.11444 | 32109 ft | 328 kts | 323° |
| 2026-04-26 10:38 | 46.12318 | 9.07796 | 32108 ft | 328 kts | 323° |
| 2026-04-26 10:38 | 46.16335 | 9.04659 | 32103 ft | 333 kts | 338° |
| 2026-04-26 10:39 | 46.18606 | 9.03925 | 32101 ft | 338 kts | 349° |
| 2026-04-26 10:39 | 46.20950 | 9.03628 | 32090 ft | 338 kts | 351° |
| 2026-04-26 10:39 | 46.23322 | 9.03296 | 31727 ft | 349 kts | 351° |
| 2026-04-26 10:39 | 46.25794 | 9.02949 | 31173 ft | 363 kts | 352° |
| 2026-04-26 10:40 | 46.28353 | 9.02617 | 30600 ft | 375 kts | 352° |
| 2026-04-26 10:40 | 46.30982 | 9.02273 | 30023 ft | 383 kts | 352° |
| 2026-04-26 10:40 | 46.33651 | 9.01913 | 29449 ft | 386 kts | 352° |
| 2026-04-26 10:40 | 46.36319 | 9.01554 | 28955 ft | 383 kts | 352° |
| 2026-04-26 10:41 | 46.38961 | 9.01199 | 28489 ft | 380 kts | 352° |
| 2026-04-26 10:41 | 46.41583 | 9.00846 | 28035 ft | 377 kts | 352° |
| 2026-04-26 10:41 | 46.44186 | 9.00498 | 27569 ft | 374 kts | 352° |
| 2026-04-26 10:41 | 46.46770 | 9.00248 | 27106 ft | 372 kts | 358° |
| 2026-04-26 10:42 | 46.49309 | 9.00982 | 26622 ft | 376 kts | 19° |
| 2026-04-26 10:42 | 46.51549 | 9.02933 | 26157 ft | 378 kts | 38° |
| 2026-04-26 10:42 | 46.53234 | 9.05849 | 25701 ft | 379 kts | 58° |
| 2026-04-26 10:42 | 46.54191 | 9.09399 | 25250 ft | 378 kts | 75° |
| 2026-04-26 10:43 | 46.54813 | 9.13093 | 24837 ft | 375 kts | 76° |
| 2026-04-26 10:43 | 46.55410 | 9.16768 | 24429 ft | 373 kts | 76° |
| 2026-04-26 10:43 | 46.56019 | 9.20412 | 24037 ft | 370 kts | 75° |
| 2026-04-26 10:43 | 46.56637 | 9.24024 | 23633 ft | 367 kts | 75° |
| 2026-04-26 10:44 | 46.57243 | 9.27599 | 23164 ft | 360 kts | 76° |
| 2026-04-26 10:44 | 46.57805 | 9.31090 | 22708 ft | 350 kts | 78° |
| 2026-04-26 10:44 | 46.57968 | 9.34577 | 22249 ft | 344 kts | 91° |
| 2026-04-26 10:44 | 46.57636 | 9.37986 | 21808 ft | 339 kts | 103° |
| 2026-04-26 10:45 | 46.56843 | 9.41182 | 21387 ft | 335 kts | 115° |
| 2026-04-26 10:45 | 46.55635 | 9.44042 | 20984 ft | 331 kts | 127° |
| 2026-04-26 10:45 | 46.54061 | 9.46489 | 20431 ft | 333 kts | 139° |
| 2026-04-26 10:45 | 46.52171 | 9.48430 | 19867 ft | 334 kts | 151° |
| 2026-04-26 10:46 | 46.50045 | 9.49779 | 19320 ft | 334 kts | 163° |
| 2026-04-26 10:46 | 46.47818 | 9.50755 | 18779 ft | 335 kts | 164° |
| 2026-04-26 10:46 | 46.45581 | 9.51772 | 18025 ft | 338 kts | 163° |
| 2026-04-26 10:46 | 46.43357 | 9.52789 | 17243 ft | 332 kts | 163° |
| 2026-04-26 10:47 | 46.41162 | 9.53771 | 16465 ft | 328 kts | 164° |
| 2026-04-26 10:47 | 46.39015 | 9.54735 | 15524 ft | 327 kts | 162° |
| 2026-04-26 10:47 | 46.36956 | 9.56217 | 14514 ft | 328 kts | 143° |
| 2026-04-26 10:47 | 46.35487 | 9.58612 | 13348 ft | 313 kts | 121° |
| 2026-04-26 10:48 | 46.34777 | 9.61467 | 12598 ft | 288 kts | 101° |
| 2026-04-26 10:48 | 46.34698 | 9.64138 | 12579 ft | 248 kts | 84° |
| 2026-04-26 10:48 | 46.35078 | 9.66419 | 12587 ft | 222 kts | 69° |
| 2026-04-26 10:48 | 46.35702 | 9.68352 | 12587 ft | 203 kts | 58° |
| 2026-04-26 10:49 | 46.36664 | 9.69850 | 12215 ft | 207 kts | 38° |
| 2026-04-26 10:49 | 46.37813 | 9.71106 | 12000 ft | 202 kts | 38° |
| 2026-04-26 10:49 | 46.38860 | 9.72330 | 11901 ft | 194 kts | 39° |
| 2026-04-26 10:49 | 46.39963 | 9.73582 | 11390 ft | 208 kts | 38° |
| 2026-04-26 10:50 | 46.41132 | 9.74911 | 10829 ft | 219 kts | 38° |
| 2026-04-26 10:50 | 46.41953 | 9.75848 | 10419 ft | 224 kts | 38° |
| 2026-04-26 10:50 | 46.43632 | 9.77769 | 9198 ft | 237 kts | 39° |
| 2026-04-26 10:50 | 46.44925 | 9.79250 | 8454 ft | 232 kts | 38° |
| 2026-04-26 10:51 | 46.46127 | 9.80620 | 8023 ft | 199 kts | 38° |
| 2026-04-26 10:51 | 46.47822 | 9.82577 | 7381 ft | 129 kts | 38° |
| 2026-04-26 10:51 | 46.48513 | 9.83359 | 7143 ft | 124 kts | 38° |
| 2026-04-26 10:52 | 46.49182 | 9.84131 | 6910 ft | 120 kts | 38° |
| 2026-04-26 10:52 | 46.49826 | 9.84868 | 6700 ft | 116 kts | 38° |
| 2026-04-26 10:52 | 46.50474 | 9.85583 | 6447 ft | 117 kts | 37° |
| 2026-04-26 10:52 | 46.51109 | 9.86326 | 6179 ft | 117 kts | 38° |
| 2026-04-26 10:53 | 46.51748 | 9.87027 | 5963 ft | 112 kts | 33° |
| 2026-04-26 10:53 | 46.52420 | 9.87595 | 5700 ft | 111 kts | 28° |
| 2026-04-26 10:53 | 46.53066 | 9.88093 | 5600 ft | 97 kts | 31° |
| 2026-04-26 10:54 | 46.53465 | 9.88430 | 5601 ft | 0 kts | 28° |
| 2026-04-26 10:55 | 46.53466 | 9.88431 | 5600 ft | 1 kts | 22° |
| 2026-04-26 10:55 | 46.53479 | 9.88424 | 5593 ft | 2 kts | 290° |
| 2026-04-26 10:55 | 46.53475 | 9.88410 | 5594 ft | 3 kts | 206° |
| 2026-04-26 10:56 | 46.53419 | 9.88392 | 5596 ft | 7 kts | 200° |
| 2026-04-26 10:56 | 46.53360 | 9.88361 | 5601 ft | 9 kts | 200° |
| 2026-04-26 10:56 | 46.53298 | 9.88312 | 5599 ft | 13 kts | 210° |
| 2026-04-26 10:56 | 46.53195 | 9.88217 | 5601 ft | 21 kts | 211° |
| 2026-04-26 10:57 | 46.53048 | 9.88095 | 5597 ft | 26 kts | 214° |
| 2026-04-26 10:57 | 46.52975 | 9.88024 | 5599 ft | 5 kts | 207° |